sensor_id;sensor_type;location;lat;lon;timestamp;P1;durP1;ratioP1;P2;durP2;ratioP2
39502;SDS011;26970;49.900;10.774;2022-08-01T00:00:11;4.85;;;2.85;;
39502;SDS011;26970;49.900;10.774;2022-08-01T00:02:37;7.55;;;3.30;;
39502;SDS011;26970;49.900;10.774;2022-08-01T00:05:03;5.68;;;3.35;;
39502;SDS011;26970;49.900;10.774;2022-08-01T00:07:30;5.15;;;3.17;;
39502;SDS011;26970;49.900;10.774;2022-08-01T00:09:57;7.32;;;2.90;;
39502;SDS011;26970;49.900;10.774;2022-08-01T00:12:22;8.55;;;3.50;;
39502;SDS011;26970;49.900;10.774;2022-08-01T00:14:48;4.32;;;3.03;;
39502;SDS011;26970;49.900;10.774;2022-08-01T00:17:13;5.32;;;3.35;;
39502;SDS011;26970;49.900;10.774;2022-08-01T00:19:39;5.75;;;3.08;;
39502;SDS011;26970;49.900;10.774;2022-08-01T00:22:04;6.90;;;3.88;;
39502;SDS011;26970;49.900;10.774;2022-08-01T00:24:30;7.45;;;3.22;;
39502;SDS011;26970;49.900;10.774;2022-08-01T00:26:56;6.25;;;3.20;;
39502;SDS011;26970;49.900;10.774;2022-08-01T00:29:21;5.43;;;2.97;;
39502;SDS011;26970;49.900;10.774;2022-08-01T00:31:47;5.25;;;3.58;;
39502;SDS011;26970;49.900;10.774;2022-08-01T00:34:12;5.78;;;3.30;;
39502;SDS011;26970;49.900;10.774;2022-08-01T00:36:38;4.30;;;3.17;;
39502;SDS011;26970;49.900;10.774;2022-08-01T00:39:04;6.07;;;3.70;;
39502;SDS011;26970;49.900;10.774;2022-08-01T00:41:29;6.18;;;3.22;;
39502;SDS011;26970;49.900;10.774;2022-08-01T00:43:55;7.15;;;3.08;;
39502;SDS011;26970;49.900;10.774;2022-08-01T00:46:20;6.28;;;2.78;;
39502;SDS011;26970;49.900;10.774;2022-08-01T00:48:46;5.30;;;2.67;;
39502;SDS011;26970;49.900;10.774;2022-08-01T00:51:11;9.02;;;3.60;;
39502;SDS011;26970;49.900;10.774;2022-08-01T00:53:38;4.93;;;2.80;;
39502;SDS011;26970;49.900;10.774;2022-08-01T00:56:04;4.60;;;2.90;;
39502;SDS011;26970;49.900;10.774;2022-08-01T00:58:30;4.53;;;2.72;;
39502;SDS011;26970;49.900;10.774;2022-08-01T01:00:57;4.35;;;2.55;;
39502;SDS011;26970;49.900;10.774;2022-08-01T01:03:24;5.53;;;2.53;;
39502;SDS011;26970;49.900;10.774;2022-08-01T01:06:01;5.22;;;2.70;;
39502;SDS011;26970;49.900;10.774;2022-08-01T01:08:42;4.10;;;2.55;;
39502;SDS011;26970;49.900;10.774;2022-08-01T01:11:21;4.95;;;2.60;;
39502;SDS011;26970;49.900;10.774;2022-08-01T01:13:54;5.00;;;2.42;;
39502;SDS011;26970;49.900;10.774;2022-08-01T01:16:26;4.75;;;2.70;;
39502;SDS011;26970;49.900;10.774;2022-08-01T01:18:56;3.60;;;2.40;;
39502;SDS011;26970;49.900;10.774;2022-08-01T01:30:28;5.63;;;2.40;;
39502;SDS011;26970;49.900;10.774;2022-08-01T01:32:56;4.55;;;2.40;;
39502;SDS011;26970;49.900;10.774;2022-08-01T01:35:27;4.75;;;2.30;;
39502;SDS011;26970;49.900;10.774;2022-08-01T01:38:10;4.70;;;2.50;;
39502;SDS011;26970;49.900;10.774;2022-08-01T01:40:48;3.75;;;2.38;;
39502;SDS011;26970;49.900;10.774;2022-08-01T01:43:17;4.82;;;2.63;;
39502;SDS011;26970;49.900;10.774;2022-08-01T01:45:44;3.90;;;2.40;;
39502;SDS011;26970;49.900;10.774;2022-08-01T01:48:12;3.97;;;2.35;;
39502;SDS011;26970;49.900;10.774;2022-08-01T01:50:41;5.85;;;2.50;;
39502;SDS011;26970;49.900;10.774;2022-08-01T01:53:09;5.25;;;2.70;;
39502;SDS011;26970;49.900;10.774;2022-08-01T01:55:38;5.57;;;2.47;;
39502;SDS011;26970;49.900;10.774;2022-08-01T01:58:06;4.90;;;2.33;;
39502;SDS011;26970;49.900;10.774;2022-08-01T02:00:33;4.25;;;2.60;;
39502;SDS011;26970;49.900;10.774;2022-08-01T02:03:01;6.53;;;2.38;;
39502;SDS011;26970;49.900;10.774;2022-08-01T02:05:29;4.03;;;2.50;;
39502;SDS011;26970;49.900;10.774;2022-08-01T02:07:55;6.10;;;2.60;;
39502;SDS011;26970;49.900;10.774;2022-08-01T02:10:22;4.30;;;2.45;;
39502;SDS011;26970;49.900;10.774;2022-08-01T02:12:48;6.22;;;2.63;;
39502;SDS011;26970;49.900;10.774;2022-08-01T02:15:15;3.97;;;2.40;;
39502;SDS011;26970;49.900;10.774;2022-08-01T02:17:43;4.13;;;2.50;;
39502;SDS011;26970;49.900;10.774;2022-08-01T02:20:11;3.85;;;2.40;;
39502;SDS011;26970;49.900;10.774;2022-08-01T02:22:46;2.88;;;2.10;;
39502;SDS011;26970;49.900;10.774;2022-08-01T02:25:22;4.30;;;2.53;;
39502;SDS011;26970;49.900;10.774;2022-08-01T02:30:25;6.70;;;2.65;;
39502;SDS011;26970;49.900;10.774;2022-08-01T02:42:59;3.70;;;2.58;;
39502;SDS011;26970;49.900;10.774;2022-08-01T02:45:28;4.57;;;2.50;;
39502;SDS011;26970;49.900;10.774;2022-08-01T02:48:07;3.72;;;2.60;;
39502;SDS011;26970;49.900;10.774;2022-08-01T02:50:46;5.97;;;2.65;;
39502;SDS011;26970;49.900;10.774;2022-08-01T02:53:17;4.07;;;2.40;;
39502;SDS011;26970;49.900;10.774;2022-08-01T02:56:03;4.07;;;2.30;;
39502;SDS011;26970;49.900;10.774;2022-08-01T02:58:48;4.13;;;2.40;;
39502;SDS011;26970;49.900;10.774;2022-08-01T03:01:27;4.72;;;2.63;;
39502;SDS011;26970;49.900;10.774;2022-08-01T03:04:05;4.50;;;2.75;;
39502;SDS011;26970;49.900;10.774;2022-08-01T03:06:32;3.75;;;2.30;;
39502;SDS011;26970;49.900;10.774;2022-08-01T03:09:17;4.95;;;2.40;;
39502;SDS011;26970;49.900;10.774;2022-08-01T03:14:44;4.90;;;2.65;;
39502;SDS011;26970;49.900;10.774;2022-08-01T03:17:19;4.38;;;2.20;;
39502;SDS011;26970;49.900;10.774;2022-08-01T03:20:03;5.70;;;2.60;;
39502;SDS011;26970;49.900;10.774;2022-08-01T03:22:42;3.95;;;2.70;;
39502;SDS011;26970;49.900;10.774;2022-08-01T03:25:23;5.25;;;2.60;;
39502;SDS011;26970;49.900;10.774;2022-08-01T03:27:56;5.43;;;2.80;;
39502;SDS011;26970;49.900;10.774;2022-08-01T03:30:36;3.92;;;2.53;;
39502;SDS011;26970;49.900;10.774;2022-08-01T03:33:14;7.13;;;2.80;;
39502;SDS011;26970;49.900;10.774;2022-08-01T03:35:42;7.68;;;2.60;;
39502;SDS011;26970;49.900;10.774;2022-08-01T03:38:17;4.03;;;2.55;;
39502;SDS011;26970;49.900;10.774;2022-08-01T03:40:51;4.18;;;2.90;;
39502;SDS011;26970;49.900;10.774;2022-08-01T03:43:32;6.00;;;2.60;;
39502;SDS011;26970;49.900;10.774;2022-08-01T03:46:17;3.55;;;2.25;;
39502;SDS011;26970;49.900;10.774;2022-08-01T03:48:49;3.78;;;2.65;;
39502;SDS011;26970;49.900;10.774;2022-08-01T03:51:26;4.70;;;2.67;;
39502;SDS011;26970;49.900;10.774;2022-08-01T03:53:57;5.93;;;2.63;;
39502;SDS011;26970;49.900;10.774;2022-08-01T03:56:26;4.10;;;2.60;;
39502;SDS011;26970;49.900;10.774;2022-08-01T03:58:58;3.72;;;2.50;;
39502;SDS011;26970;49.900;10.774;2022-08-01T04:01:24;3.55;;;2.42;;
39502;SDS011;26970;49.900;10.774;2022-08-01T04:04:01;3.60;;;2.40;;
39502;SDS011;26970;49.900;10.774;2022-08-01T04:06:30;4.90;;;2.38;;
39502;SDS011;26970;49.900;10.774;2022-08-01T04:08:58;4.32;;;2.60;;
39502;SDS011;26970;49.900;10.774;2022-08-01T04:11:30;4.40;;;2.38;;
39502;SDS011;26970;49.900;10.774;2022-08-01T04:13:58;5.90;;;2.47;;
39502;SDS011;26970;49.900;10.774;2022-08-01T04:16:41;6.80;;;2.63;;
39502;SDS011;26970;49.900;10.774;2022-08-01T04:19:37;5.65;;;2.55;;
39502;SDS011;26970;49.900;10.774;2022-08-01T04:22:13;5.57;;;2.55;;
39502;SDS011;26970;49.900;10.774;2022-08-01T04:25:00;5.00;;;2.75;;
39502;SDS011;26970;49.900;10.774;2022-08-01T04:27:49;5.90;;;2.60;;
39502;SDS011;26970;49.900;10.774;2022-08-01T04:30:39;5.45;;;3.03;;
39502;SDS011;26970;49.900;10.774;2022-08-01T04:33:20;4.13;;;2.70;;
39502;SDS011;26970;49.900;10.774;2022-08-01T04:38:51;5.45;;;2.75;;
39502;SDS011;26970;49.900;10.774;2022-08-01T04:41:41;5.95;;;3.13;;
39502;SDS011;26970;49.900;10.774;2022-08-01T04:44:22;4.25;;;2.63;;
39502;SDS011;26970;49.900;10.774;2022-08-01T04:46:56;4.80;;;2.95;;
39502;SDS011;26970;49.900;10.774;2022-08-01T04:49:35;4.17;;;2.53;;
39502;SDS011;26970;49.900;10.774;2022-08-01T04:52:06;4.05;;;2.50;;
39502;SDS011;26970;49.900;10.774;2022-08-01T04:54:35;6.50;;;2.53;;
39502;SDS011;26970;49.900;10.774;2022-08-01T04:57:13;4.43;;;2.80;;
39502;SDS011;26970;49.900;10.774;2022-08-01T04:59:41;4.40;;;2.50;;
39502;SDS011;26970;49.900;10.774;2022-08-01T05:02:39;3.72;;;2.50;;
39502;SDS011;26970;49.900;10.774;2022-08-01T05:05:14;5.25;;;2.83;;
39502;SDS011;26970;49.900;10.774;2022-08-01T05:07:47;4.22;;;2.50;;
39502;SDS011;26970;49.900;10.774;2022-08-01T05:10:23;5.40;;;2.50;;
39502;SDS011;26970;49.900;10.774;2022-08-01T05:12:51;3.53;;;2.50;;
39502;SDS011;26970;49.900;10.774;2022-08-01T05:15:24;7.43;;;2.50;;
39502;SDS011;26970;49.900;10.774;2022-08-01T05:17:55;4.43;;;2.85;;
39502;SDS011;26970;49.900;10.774;2022-08-01T05:20:32;4.40;;;2.70;;
39502;SDS011;26970;49.900;10.774;2022-08-01T05:23:08;7.60;;;3.00;;
39502;SDS011;26970;49.900;10.774;2022-08-01T05:25:47;5.45;;;2.58;;
39502;SDS011;26970;49.900;10.774;2022-08-01T05:28:27;4.97;;;2.63;;
39502;SDS011;26970;49.900;10.774;2022-08-01T05:31:03;3.80;;;2.40;;
39502;SDS011;26970;49.900;10.774;2022-08-01T05:34:00;5.90;;;2.65;;
39502;SDS011;26970;49.900;10.774;2022-08-01T05:36:47;3.95;;;2.67;;
39502;SDS011;26970;49.900;10.774;2022-08-01T05:39:37;4.70;;;2.60;;
39502;SDS011;26970;49.900;10.774;2022-08-01T05:42:11;6.22;;;2.88;;
39502;SDS011;26970;49.900;10.774;2022-08-01T05:44:42;4.10;;;2.63;;
39502;SDS011;26970;49.900;10.774;2022-08-01T05:47:17;4.70;;;2.58;;
39502;SDS011;26970;49.900;10.774;2022-08-01T05:50:03;5.97;;;2.72;;
39502;SDS011;26970;49.900;10.774;2022-08-01T05:52:39;4.63;;;2.45;;
39502;SDS011;26970;49.900;10.774;2022-08-01T05:55:10;4.65;;;2.80;;
39502;SDS011;26970;49.900;10.774;2022-08-01T05:57:59;5.53;;;2.70;;
39502;SDS011;26970;49.900;10.774;2022-08-01T06:00:45;5.72;;;2.70;;
39502;SDS011;26970;49.900;10.774;2022-08-01T06:03:13;3.78;;;2.40;;
39502;SDS011;26970;49.900;10.774;2022-08-01T06:05:46;4.73;;;2.83;;
39502;SDS011;26970;49.900;10.774;2022-08-01T06:08:15;4.40;;;2.60;;
39502;SDS011;26970;49.900;10.774;2022-08-01T06:10:43;4.68;;;2.70;;
39502;SDS011;26970;49.900;10.774;2022-08-01T06:13:11;4.45;;;2.65;;
39502;SDS011;26970;49.900;10.774;2022-08-01T06:16:02;5.93;;;2.60;;
39502;SDS011;26970;49.900;10.774;2022-08-01T06:18:40;4.93;;;2.92;;
39502;SDS011;26970;49.900;10.774;2022-08-01T06:21:38;4.10;;;2.60;;
39502;SDS011;26970;49.900;10.774;2022-08-01T06:24:08;5.97;;;2.70;;
39502;SDS011;26970;49.900;10.774;2022-08-01T06:26:34;4.80;;;2.70;;
39502;SDS011;26970;49.900;10.774;2022-08-01T06:29:11;4.82;;;2.67;;
39502;SDS011;26970;49.900;10.774;2022-08-01T06:31:48;4.93;;;2.67;;
39502;SDS011;26970;49.900;10.774;2022-08-01T06:34:21;5.10;;;2.40;;
39502;SDS011;26970;49.900;10.774;2022-08-01T06:37:10;5.15;;;2.50;;
39502;SDS011;26970;49.900;10.774;2022-08-01T06:39:49;3.67;;;2.72;;
39502;SDS011;26970;49.900;10.774;2022-08-01T06:42:38;3.80;;;2.22;;
39502;SDS011;26970;49.900;10.774;2022-08-01T06:45:23;4.30;;;2.53;;
39502;SDS011;26970;49.900;10.774;2022-08-01T06:48:09;4.63;;;2.35;;
39502;SDS011;26970;49.900;10.774;2022-08-01T06:50:35;5.22;;;2.50;;
39502;SDS011;26970;49.900;10.774;2022-08-01T06:53:01;6.00;;;2.47;;
39502;SDS011;26970;49.900;10.774;2022-08-01T06:55:36;4.25;;;2.78;;
39502;SDS011;26970;49.900;10.774;2022-08-01T06:58:06;4.13;;;2.47;;
39502;SDS011;26970;49.900;10.774;2022-08-01T07:00:34;6.18;;;2.55;;
39502;SDS011;26970;49.900;10.774;2022-08-01T07:06:12;4.03;;;2.58;;
39502;SDS011;26970;49.900;10.774;2022-08-01T07:08:42;4.13;;;2.63;;
39502;SDS011;26970;49.900;10.774;2022-08-01T07:11:10;7.63;;;2.70;;
39502;SDS011;26970;49.900;10.774;2022-08-01T07:17:05;5.57;;;3.35;;
39502;SDS011;26970;49.900;10.774;2022-08-01T07:19:33;5.15;;;3.08;;
39502;SDS011;26970;49.900;10.774;2022-08-01T07:21:59;4.57;;;3.20;;
39502;SDS011;26970;49.900;10.774;2022-08-01T07:24:28;6.95;;;3.67;;
39502;SDS011;26970;49.900;10.774;2022-08-01T07:26:56;4.80;;;3.10;;
39502;SDS011;26970;49.900;10.774;2022-08-01T07:29:25;5.82;;;3.17;;
39502;SDS011;26970;49.900;10.774;2022-08-01T07:32:00;5.43;;;3.50;;
39502;SDS011;26970;49.900;10.774;2022-08-01T07:34:36;6.15;;;3.38;;
39502;SDS011;26970;49.900;10.774;2022-08-01T07:37:20;4.65;;;3.22;;
39502;SDS011;26970;49.900;10.774;2022-08-01T07:39:45;8.20;;;3.25;;
39502;SDS011;26970;49.900;10.774;2022-08-01T07:42:13;5.45;;;3.03;;
39502;SDS011;26970;49.900;10.774;2022-08-01T07:44:41;4.55;;;2.90;;
39502;SDS011;26970;49.900;10.774;2022-08-01T07:47:09;4.97;;;3.13;;
39502;SDS011;26970;49.900;10.774;2022-08-01T07:49:48;6.30;;;2.97;;
39502;SDS011;26970;49.900;10.774;2022-08-01T07:52:16;4.35;;;3.15;;
39502;SDS011;26970;49.900;10.774;2022-08-01T07:55:04;6.75;;;3.00;;
39502;SDS011;26970;49.900;10.774;2022-08-01T07:57:50;3.75;;;3.10;;
39502;SDS011;26970;49.900;10.774;2022-08-01T08:00:26;6.05;;;3.78;;
39502;SDS011;26970;49.900;10.774;2022-08-01T08:02:54;4.43;;;3.03;;
39502;SDS011;26970;49.900;10.774;2022-08-01T08:05:30;4.40;;;2.90;;
39502;SDS011;26970;49.900;10.774;2022-08-01T08:08:00;4.63;;;2.97;;
39502;SDS011;26970;49.900;10.774;2022-08-01T08:10:45;11.10;;;2.97;;
39502;SDS011;26970;49.900;10.774;2022-08-01T08:13:21;4.38;;;3.03;;
39502;SDS011;26970;49.900;10.774;2022-08-01T08:16:15;4.95;;;3.08;;
39502;SDS011;26970;49.900;10.774;2022-08-01T08:18:43;6.82;;;3.08;;
39502;SDS011;26970;49.900;10.774;2022-08-01T08:24:02;4.25;;;3.35;;
39502;SDS011;26970;49.900;10.774;2022-08-01T08:26:52;5.75;;;3.00;;
39502;SDS011;26970;49.900;10.774;2022-08-01T08:29:20;4.88;;;2.90;;
39502;SDS011;26970;49.900;10.774;2022-08-01T08:31:54;4.40;;;3.10;;
39502;SDS011;26970;49.900;10.774;2022-08-01T08:34:24;3.75;;;2.70;;
39502;SDS011;26970;49.900;10.774;2022-08-01T08:37:10;4.45;;;3.03;;
39502;SDS011;26970;49.900;10.774;2022-08-01T08:39:43;3.58;;;2.95;;
39502;SDS011;26970;49.900;10.774;2022-08-01T08:42:18;3.67;;;2.80;;
39502;SDS011;26970;49.900;10.774;2022-08-01T08:44:49;4.47;;;2.90;;
39502;SDS011;26970;49.900;10.774;2022-08-01T08:47:59;6.18;;;2.45;;
39502;SDS011;26970;49.900;10.774;2022-08-01T08:50:35;4.47;;;2.63;;
39502;SDS011;26970;49.900;10.774;2022-08-01T08:53:22;3.50;;;2.67;;
39502;SDS011;26970;49.900;10.774;2022-08-01T08:56:13;5.38;;;2.55;;
39502;SDS011;26970;49.900;10.774;2022-08-01T08:58:47;8.10;;;2.85;;
39502;SDS011;26970;49.900;10.774;2022-08-01T09:01:16;3.78;;;2.35;;
39502;SDS011;26970;49.900;10.774;2022-08-01T09:03:43;3.53;;;2.42;;
39502;SDS011;26970;49.900;10.774;2022-08-01T09:06:22;4.00;;;2.42;;
39502;SDS011;26970;49.900;10.774;2022-08-01T09:08:50;5.25;;;2.70;;
39502;SDS011;26970;49.900;10.774;2022-08-01T09:11:36;5.05;;;2.40;;
39502;SDS011;26970;49.900;10.774;2022-08-01T09:14:13;5.07;;;2.53;;
39502;SDS011;26970;49.900;10.774;2022-08-01T09:17:03;4.38;;;2.30;;
39502;SDS011;26970;49.900;10.774;2022-08-01T09:19:51;4.70;;;2.45;;
39502;SDS011;26970;49.900;10.774;2022-08-01T09:23:00;3.05;;;2.10;;
39502;SDS011;26970;49.900;10.774;2022-08-01T09:25:34;4.57;;;2.28;;
39502;SDS011;26970;49.900;10.774;2022-08-01T09:28:26;9.60;;;2.58;;
39502;SDS011;26970;49.900;10.774;2022-08-01T09:30:55;5.43;;;2.42;;
39502;SDS011;26970;49.900;10.774;2022-08-01T09:36:24;4.47;;;2.92;;
39502;SDS011;26970;49.900;10.774;2022-08-01T09:39:13;8.77;;;2.80;;
39502;SDS011;26970;49.900;10.774;2022-08-01T09:41:39;4.43;;;2.63;;
39502;SDS011;26970;49.900;10.774;2022-08-01T09:44:11;3.60;;;2.80;;
39502;SDS011;26970;49.900;10.774;2022-08-01T09:46:53;3.83;;;2.75;;
39502;SDS011;26970;49.900;10.774;2022-08-01T09:49:33;3.58;;;2.88;;
39502;SDS011;26970;49.900;10.774;2022-08-01T09:52:11;3.90;;;3.10;;
39502;SDS011;26970;49.900;10.774;2022-08-01T09:54:51;4.38;;;2.85;;
39502;SDS011;26970;49.900;10.774;2022-08-01T09:57:27;3.78;;;2.50;;
39502;SDS011;26970;49.900;10.774;2022-08-01T09:59:58;4.20;;;2.80;;
39502;SDS011;26970;49.900;10.774;2022-08-01T10:02:37;3.30;;;2.30;;
39502;SDS011;26970;49.900;10.774;2022-08-01T10:05:06;4.68;;;2.50;;
39502;SDS011;26970;49.900;10.774;2022-08-01T10:07:54;3.55;;;2.40;;
39502;SDS011;26970;49.900;10.774;2022-08-01T10:10:28;3.50;;;2.60;;
39502;SDS011;26970;49.900;10.774;2022-08-01T10:13:02;3.17;;;2.22;;
39502;SDS011;26970;49.900;10.774;2022-08-01T10:15:47;5.72;;;2.40;;
39502;SDS011;26970;49.900;10.774;2022-08-01T10:18:28;3.25;;;2.28;;
39502;SDS011;26970;49.900;10.774;2022-08-01T10:20:58;6.95;;;2.88;;
39502;SDS011;26970;49.900;10.774;2022-08-01T10:23:30;4.72;;;2.60;;
39502;SDS011;26970;49.900;10.774;2022-08-01T10:26:12;4.32;;;2.30;;
39502;SDS011;26970;49.900;10.774;2022-08-01T10:28:44;7.32;;;2.80;;
39502;SDS011;26970;49.900;10.774;2022-08-01T10:31:21;5.43;;;2.58;;
39502;SDS011;26970;49.900;10.774;2022-08-01T10:33:57;4.03;;;2.67;;
39502;SDS011;26970;49.900;10.774;2022-08-01T10:36:28;4.10;;;2.75;;
39502;SDS011;26970;49.900;10.774;2022-08-01T10:39:05;3.40;;;2.60;;
39502;SDS011;26970;49.900;10.774;2022-08-01T10:41:35;3.72;;;2.65;;
39502;SDS011;26970;49.900;10.774;2022-08-01T10:44:21;6.57;;;2.70;;
39502;SDS011;26970;49.900;10.774;2022-08-01T10:46:59;3.55;;;2.40;;
39502;SDS011;26970;49.900;10.774;2022-08-01T10:49:32;4.18;;;2.63;;
39502;SDS011;26970;49.900;10.774;2022-08-01T10:52:08;4.75;;;2.85;;
39502;SDS011;26970;49.900;10.774;2022-08-01T10:54:44;4.30;;;2.60;;
39502;SDS011;26970;49.900;10.774;2022-08-01T10:57:17;3.60;;;2.70;;
39502;SDS011;26970;49.900;10.774;2022-08-01T10:59:50;4.88;;;2.30;;
39502;SDS011;26970;49.900;10.774;2022-08-01T11:02:30;4.03;;;2.40;;
39502;SDS011;26970;49.900;10.774;2022-08-01T11:05:21;5.95;;;2.60;;
39502;SDS011;26970;49.900;10.774;2022-08-01T11:07:51;3.15;;;2.13;;
39502;SDS011;26970;49.900;10.774;2022-08-01T11:10:34;2.83;;;2.13;;
39502;SDS011;26970;49.900;10.774;2022-08-01T11:13:14;3.35;;;2.20;;
39502;SDS011;26970;49.900;10.774;2022-08-01T11:19:14;4.22;;;2.40;;
39502;SDS011;26970;49.900;10.774;2022-08-01T11:27:35;3.60;;;2.28;;
39502;SDS011;26970;49.900;10.774;2022-08-01T11:30:44;3.30;;;2.30;;
39502;SDS011;26970;49.900;10.774;2022-08-01T11:45:53;2.63;;;1.95;;
39502;SDS011;26970;49.900;10.774;2022-08-01T11:48:21;3.45;;;1.95;;
39502;SDS011;26970;49.900;10.774;2022-08-01T11:50:49;2.47;;;1.80;;
39502;SDS011;26970;49.900;10.774;2022-08-01T11:53:15;3.10;;;1.88;;
39502;SDS011;26970;49.900;10.774;2022-08-01T11:55:50;2.35;;;1.85;;
39502;SDS011;26970;49.900;10.774;2022-08-01T11:58:22;3.45;;;1.80;;
39502;SDS011;26970;49.900;10.774;2022-08-01T12:00:50;2.33;;;1.70;;
39502;SDS011;26970;49.900;10.774;2022-08-01T12:03:24;2.65;;;1.90;;
39502;SDS011;26970;49.900;10.774;2022-08-01T12:05:52;3.38;;;1.80;;
39502;SDS011;26970;49.900;10.774;2022-08-01T12:08:28;2.47;;;2.00;;
39502;SDS011;26970;49.900;10.774;2022-08-01T12:10:59;2.45;;;1.80;;
39502;SDS011;26970;49.900;10.774;2022-08-01T12:13:26;2.47;;;1.88;;
39502;SDS011;26970;49.900;10.774;2022-08-01T12:15:51;3.30;;;1.80;;
39502;SDS011;26970;49.900;10.774;2022-08-01T12:18:17;3.15;;;1.90;;
39502;SDS011;26970;49.900;10.774;2022-08-01T12:20:44;3.67;;;1.92;;
39502;SDS011;26970;49.900;10.774;2022-08-01T12:23:12;2.25;;;1.77;;
39502;SDS011;26970;49.900;10.774;2022-08-01T12:25:39;4.80;;;1.60;;
39502;SDS011;26970;49.900;10.774;2022-08-01T12:28:07;2.58;;;1.63;;
39502;SDS011;26970;49.900;10.774;2022-08-01T12:30:34;1.65;;;1.38;;
39502;SDS011;26970;49.900;10.774;2022-08-01T12:33:02;4.03;;;1.40;;
39502;SDS011;26970;49.900;10.774;2022-08-01T12:35:30;3.47;;;1.60;;
39502;SDS011;26970;49.900;10.774;2022-08-01T12:37:57;2.53;;;1.90;;
39502;SDS011;26970;49.900;10.774;2022-08-01T12:40:26;2.42;;;1.70;;
39502;SDS011;26970;49.900;10.774;2022-08-01T12:42:57;6.65;;;2.22;;
39502;SDS011;26970;49.900;10.774;2022-08-01T12:45:26;3.50;;;2.20;;
39502;SDS011;26970;49.900;10.774;2022-08-01T12:47:53;4.50;;;2.55;;
39502;SDS011;26970;49.900;10.774;2022-08-01T12:50:20;2.88;;;2.20;;
39502;SDS011;26970;49.900;10.774;2022-08-01T12:52:48;2.97;;;2.10;;
39502;SDS011;26970;49.900;10.774;2022-08-01T12:55:15;3.08;;;2.13;;
39502;SDS011;26970;49.900;10.774;2022-08-01T12:57:43;3.97;;;2.55;;
39502;SDS011;26970;49.900;10.774;2022-08-01T13:00:15;3.20;;;2.30;;
39502;SDS011;26970;49.900;10.774;2022-08-01T13:02:49;4.22;;;2.35;;
39502;SDS011;26970;49.900;10.774;2022-08-01T13:05:24;2.70;;;2.10;;
39502;SDS011;26970;49.900;10.774;2022-08-01T13:07:50;2.70;;;2.13;;
39502;SDS011;26970;49.900;10.774;2022-08-01T13:10:26;3.80;;;2.05;;
39502;SDS011;26970;49.900;10.774;2022-08-01T13:12:54;3.78;;;2.47;;
39502;SDS011;26970;49.900;10.774;2022-08-01T13:15:26;3.83;;;2.20;;
39502;SDS011;26970;49.900;10.774;2022-08-01T13:17:57;3.00;;;2.13;;
39502;SDS011;26970;49.900;10.774;2022-08-01T13:20:24;5.28;;;2.22;;
39502;SDS011;26970;49.900;10.774;2022-08-01T13:22:50;3.88;;;2.28;;
39502;SDS011;26970;49.900;10.774;2022-08-01T13:25:16;3.58;;;2.33;;
39502;SDS011;26970;49.900;10.774;2022-08-01T13:27:42;3.25;;;2.30;;
39502;SDS011;26970;49.900;10.774;2022-08-01T13:30:15;3.42;;;2.30;;
39502;SDS011;26970;49.900;10.774;2022-08-01T13:32:43;4.38;;;2.40;;
39502;SDS011;26970;49.900;10.774;2022-08-01T13:35:21;4.38;;;2.33;;
39502;SDS011;26970;49.900;10.774;2022-08-01T13:37:47;4.57;;;2.30;;
39502;SDS011;26970;49.900;10.774;2022-08-01T13:40:22;3.92;;;2.20;;
39502;SDS011;26970;49.900;10.774;2022-08-01T13:42:52;2.90;;;2.30;;
39502;SDS011;26970;49.900;10.774;2022-08-01T13:45:19;3.75;;;2.53;;
39502;SDS011;26970;49.900;10.774;2022-08-01T13:47:45;3.42;;;2.42;;
39502;SDS011;26970;49.900;10.774;2022-08-01T13:50:10;4.32;;;2.70;;
39502;SDS011;26970;49.900;10.774;2022-08-01T13:52:36;4.47;;;2.30;;
39502;SDS011;26970;49.900;10.774;2022-08-01T13:55:01;3.53;;;2.38;;
39502;SDS011;26970;49.900;10.774;2022-08-01T13:57:27;4.70;;;2.38;;
39502;SDS011;26970;49.900;10.774;2022-08-01T13:59:53;2.90;;;2.40;;
39502;SDS011;26970;49.900;10.774;2022-08-01T14:02:19;4.00;;;2.45;;
39502;SDS011;26970;49.900;10.774;2022-08-01T14:04:45;3.75;;;2.40;;
39502;SDS011;26970;49.900;10.774;2022-08-01T14:07:10;5.22;;;2.30;;
39502;SDS011;26970;49.900;10.774;2022-08-01T14:09:36;3.40;;;2.40;;
39502;SDS011;26970;49.900;10.774;2022-08-01T14:12:02;4.15;;;2.38;;
39502;SDS011;26970;49.900;10.774;2022-08-01T14:14:28;3.75;;;2.40;;
39502;SDS011;26970;49.900;10.774;2022-08-01T14:16:55;4.13;;;2.30;;
39502;SDS011;26970;49.900;10.774;2022-08-01T14:19:21;3.72;;;2.30;;
39502;SDS011;26970;49.900;10.774;2022-08-01T14:21:47;3.42;;;2.30;;
39502;SDS011;26970;49.900;10.774;2022-08-01T14:24:12;30.70;;;3.85;;
39502;SDS011;26970;49.900;10.774;2022-08-01T14:26:38;3.30;;;2.40;;
39502;SDS011;26970;49.900;10.774;2022-08-01T14:29:03;4.28;;;2.58;;
39502;SDS011;26970;49.900;10.774;2022-08-01T14:31:29;4.38;;;2.72;;
39502;SDS011;26970;49.900;10.774;2022-08-01T14:33:54;4.88;;;2.22;;
39502;SDS011;26970;49.900;10.774;2022-08-01T14:36:20;3.78;;;2.58;;
39502;SDS011;26970;49.900;10.774;2022-08-01T14:38:46;4.53;;;2.60;;
39502;SDS011;26970;49.900;10.774;2022-08-01T14:41:11;3.58;;;2.30;;
39502;SDS011;26970;49.900;10.774;2022-08-01T14:43:38;4.28;;;2.45;;
39502;SDS011;26970;49.900;10.774;2022-08-01T14:46:03;4.70;;;2.35;;
39502;SDS011;26970;49.900;10.774;2022-08-01T14:48:29;3.58;;;2.65;;
39502;SDS011;26970;49.900;10.774;2022-08-01T14:50:55;3.35;;;2.63;;
39502;SDS011;26970;49.900;10.774;2022-08-01T14:53:21;4.53;;;2.20;;
39502;SDS011;26970;49.900;10.774;2022-08-01T14:55:46;3.15;;;2.25;;
39502;SDS011;26970;49.900;10.774;2022-08-01T14:58:12;3.03;;;2.30;;
39502;SDS011;26970;49.900;10.774;2022-08-01T15:00:37;3.25;;;2.10;;
39502;SDS011;26970;49.900;10.774;2022-08-01T15:03:03;4.00;;;2.40;;
39502;SDS011;26970;49.900;10.774;2022-08-01T15:05:28;3.28;;;2.35;;
39502;SDS011;26970;49.900;10.774;2022-08-01T15:07:55;3.10;;;2.40;;
39502;SDS011;26970;49.900;10.774;2022-08-01T15:10:21;3.13;;;2.33;;
39502;SDS011;26970;49.900;10.774;2022-08-01T15:12:47;4.53;;;2.55;;
39502;SDS011;26970;49.900;10.774;2022-08-01T15:15:13;4.43;;;2.40;;
39502;SDS011;26970;49.900;10.774;2022-08-01T15:17:39;3.53;;;2.10;;
39502;SDS011;26970;49.900;10.774;2022-08-01T15:20:05;3.65;;;2.60;;
39502;SDS011;26970;49.900;10.774;2022-08-01T15:22:31;4.20;;;2.42;;
39502;SDS011;26970;49.900;10.774;2022-08-01T15:24:58;4.70;;;2.70;;
39502;SDS011;26970;49.900;10.774;2022-08-01T15:27:25;3.30;;;2.30;;
39502;SDS011;26970;49.900;10.774;2022-08-01T15:29:52;2.97;;;2.25;;
39502;SDS011;26970;49.900;10.774;2022-08-01T15:32:18;4.88;;;2.38;;
39502;SDS011;26970;49.900;10.774;2022-08-01T15:34:44;3.35;;;2.40;;
39502;SDS011;26970;49.900;10.774;2022-08-01T15:37:10;4.15;;;2.50;;
39502;SDS011;26970;49.900;10.774;2022-08-01T15:39:36;3.05;;;2.40;;
39502;SDS011;26970;49.900;10.774;2022-08-01T15:42:07;3.40;;;2.30;;
39502;SDS011;26970;49.900;10.774;2022-08-01T15:44:34;3.47;;;2.58;;
39502;SDS011;26970;49.900;10.774;2022-08-01T15:47:00;2.95;;;2.28;;
39502;SDS011;26970;49.900;10.774;2022-08-01T15:49:27;4.30;;;3.00;;
39502;SDS011;26970;49.900;10.774;2022-08-01T15:51:52;3.88;;;2.47;;
39502;SDS011;26970;49.900;10.774;2022-08-01T15:54:18;2.70;;;2.10;;
39502;SDS011;26970;49.900;10.774;2022-08-01T15:56:44;3.03;;;2.35;;
39502;SDS011;26970;49.900;10.774;2022-08-01T15:59:09;4.93;;;2.60;;
39502;SDS011;26970;49.900;10.774;2022-08-01T16:01:35;3.30;;;2.30;;
39502;SDS011;26970;49.900;10.774;2022-08-01T16:04:02;4.72;;;2.47;;
39502;SDS011;26970;49.900;10.774;2022-08-01T16:06:28;5.80;;;2.17;;